Time;durP1;ratioP1;P1;durP2;ratioP2;P2;SDS_P1;SDS_P2;PMS_P1;PMS_P2;Temp;Humidity;BMP_temperature;BMP_pressure;BME280_temperature;BME280_humidity;BME280_pressure;Samples;Min_cycle;Max_cycle;Signal;HPM_P1;HPM_P2
2021/12/18 00:06:13;;;;;;;33.17;18.30;;;;;;;3.70;95.45;102607.78;20966328;28;20041;-69
2021/12/18 00:16:14;;;;;;;30.63;17.55;;;;;;;3.66;95.53;102596.38;20964554;28;20053;-70
2021/12/18 00:26:17;;;;;;;31.08;17.27;;;;;;;3.62;95.59;102584.09;20952315;23;20453;-67
2021/12/18 00:36:19;;;;;;;32.00;17.33;;;;;;;3.46;95.79;102581.59;20828996;28;20053;-69
2021/12/18 00:46:20;;;;;;;33.05;18.17;;;;;;;3.33;96.57;102582.69;20859372;28;20569;-68
2021/12/18 00:56:23;;;;;;;34.42;18.52;;;;;;;3.31;96.05;102585.22;20857485;28;20061;-68
2021/12/18 01:06:24;;;;;;;36.45;19.02;;;;;;;3.33;97.04;102587.88;20857127;28;20099;-68
2021/12/18 01:16:36;;;;;;;33.95;17.52;;;;;;;3.52;96.28;102587.06;20856368;28;20053;-68
2021/12/18 01:26:37;;;;;;;30.58;14.93;;;;;;;3.62;96.42;102584.09;20857833;28;20051;-68
2021/12/18 01:36:39;;;;;;;26.83;13.85;;;;;;;3.77;95.69;102594.28;20856894;28;20068;-68
2021/12/18 01:57:05;;;;;;;25.50;14.33;;;;;;;4.00;93.88;102591.06;20839812;28;20095;-68
2021/12/18 02:07:07;;;;;;;29.70;15.10;;;;;;;4.09;93.21;102593.19;20851090;28;20049;-68
2021/12/18 02:27:30;;;;;;;28.17;14.10;;;;;;;4.14;92.03;102591.72;20853428;28;20068;-68
2021/12/18 02:37:42;;;;;;;25.50;13.77;;;;;;;4.06;93.92;102585.28;20851244;28;20049;-68
2021/12/18 02:47:47;;;;;;;25.77;13.77;;;;;;;4.15;91.70;102588.28;20849502;28;20041;-68
2021/12/18 02:57:49;;;;;;;29.75;15.07;;;;;;;4.10;92.35;102594.97;20851668;28;20050;-69
2021/12/18 03:07:57;;;;;;;26.67;14.25;;;;;;;4.16;91.08;102590.06;20847308;28;20038;-68
2021/12/18 03:28:19;;;;;;;27.75;14.13;;;;;;;4.14;91.47;102586.53;20851026;28;20037;-70
2021/12/18 03:38:20;;;;;;;29.83;15.52;;;;;;;4.24;91.37;102593.91;20845405;28;20054;-69
2021/12/18 03:48:22;;;;;;;32.45;16.10;;;;;;;4.19;90.86;102582.44;20848243;28;20159;-69
2021/12/18 03:58:23;;;;;;;27.92;13.80;;;;;;;4.11;91.49;102576.00;20847675;28;20441;-70
2021/12/18 04:08:25;;;;;;;29.65;14.93;;;;;;;4.09;91.66;102578.53;20846434;28;20087;-69
2021/12/18 04:18:26;;;;;;;27.67;14.05;;;;;;;4.11;91.59;102583.78;20859482;28;20057;-69
2021/12/18 04:28:28;;;;;;;31.83;15.02;;;;;;;4.13;91.82;102581.28;20862857;28;20347;-69
2021/12/18 04:38:29;;;;;;;29.33;14.95;;;;;;;3.97;92.23;102577.06;20861101;28;20091;-67
2021/12/18 04:48:31;;;;;;;29.63;14.48;;;;;;;4.08;91.24;102588.84;20858507;28;20045;-67
2021/12/18 04:58:32;;;;;;;30.88;15.50;;;;;;;4.01;91.91;102599.72;20851047;28;20099;-67
2021/12/18 05:08:34;;;;;;;29.00;14.15;;;;;;;4.06;91.69;102593.06;20855516;28;20050;-67
2021/12/18 05:18:35;;;;;;;29.55;14.40;;;;;;;4.00;92.39;102593.66;20853634;28;20060;-67
2021/12/18 05:28:37;;;;;;;33.38;15.15;;;;;;;3.96;91.94;102588.25;20855565;28;20057;-67
2021/12/18 05:38:38;;;;;;;33.95;16.85;;;;;;;4.07;91.34;102600.00;20856630;28;20107;-66
2021/12/18 05:48:40;;;;;;;28.15;14.57;;;;;;;4.05;91.34;102597.34;20855347;28;20056;-67
2021/12/18 05:58:43;;;;;;;28.63;14.02;;;;;;;3.99;91.04;102602.25;20851992;28;20044;-67
2021/12/18 06:08:45;;;;;;;32.30;15.35;;;;;;;3.96;90.68;102601.22;20846955;28;20048;-66
2021/12/18 06:18:50;;;;;;;32.72;16.45;;;;;;;3.86;91.29;102618.94;20851783;28;20044;-66
2021/12/18 06:28:52;;;;;;;36.70;15.95;;;;;;;3.75;89.97;102616.66;20885486;23;20044;-72
2021/12/18 06:39:03;;;;;;;34.55;15.82;;;;;;;3.75;90.39;102620.13;20930238;28;20171;-72
2021/12/18 06:49:06;;;;;;;32.58;15.65;;;;;;;3.73;90.86;102611.38;20928491;28;20373;-71
2021/12/18 06:59:09;;;;;;;32.85;16.98;;;;;;;3.74;90.85;102628.72;20931184;28;20045;-73
2021/12/18 07:09:10;;;;;;;43.42;19.70;;;;;;;3.80;90.08;102616.06;20927835;28;20126;-72
2021/12/18 07:19:12;;;;;;;35.28;16.48;;;;;;;3.72;90.60;102624.28;20927036;28;20486;-73
2021/12/18 07:29:13;;;;;;;36.63;17.05;;;;;;;3.74;89.85;102633.91;20929109;28;20045;-73
2021/12/18 07:39:15;;;;;;;36.20;16.70;;;;;;;3.82;90.48;102637.75;20926089;28;20106;-73
2021/12/18 07:49:17;;;;;;;39.25;17.83;;;;;;;3.78;90.14;102637.50;20934153;28;20094;-73
2021/12/18 07:59:18;;;;;;;34.70;16.20;;;;;;;3.84;90.01;102633.53;20945283;28;20094;-72
2021/12/18 08:09:20;;;;;;;35.80;15.27;;;;;;;3.86;90.46;102642.25;20946878;28;20052;-76
2021/12/18 08:19:21;;;;;;;37.95;16.20;;;;;;;3.86;90.71;102642.25;20958798;28;20068;-73
2021/12/18 08:29:23;;;;;;;33.72;15.85;;;;;;;3.92;89.15;102636.47;20948484;28;20048;-72
2021/12/18 08:39:24;;;;;;;31.83;15.65;;;;;;;3.89;88.93;102640.66;20949803;28;20490;-73
2021/12/18 08:49:27;;;;;;;35.15;15.75;;;;;;;3.88;89.10;102644.03;20956230;28;20044;-73
2021/12/18 08:59:28;;;;;;;30.38;14.85;;;;;;;4.02;88.53;102627.41;20951258;28;20071;-73
2021/12/18 09:09:30;;;;;;;31.27;14.82;;;;;;;3.93;88.44;102635.69;20947358;28;20064;-75
2021/12/18 09:19:32;;;;;;;34.28;15.73;;;;;;;4.02;88.31;102625.72;20933248;28;20048;-73
2021/12/18 09:29:33;;;;;;;31.90;14.25;;;;;;;4.08;89.85;102638.09;20921941;28;21208;-75
2021/12/18 09:39:35;;;;;;;30.95;14.30;;;;;;;4.29;87.52;102631.28;20933461;28;20138;-72
2021/12/18 09:49:38;;;;;;;32.33;14.93;;;;;;;4.46;87.60;102619.09;20931036;28;20099;-72
2021/12/18 09:59:40;;;;;;;30.55;14.48;;;;;;;4.33;88.45;102604.69;20936273;28;20095;-75
2021/12/18 10:09:41;;;;;;;58.47;28.42;;;;;;;4.43;87.67;102605.09;20930396;28;20797;-73
2021/12/18 10:19:43;;;;;;;33.47;15.98;;;;;;;4.17;88.39;102602.22;20928462;28;20111;-73
2021/12/18 10:29:46;;;;;;;34.67;16.80;;;;;;;4.21;87.52;102583.38;20936261;28;20041;-73
2021/12/18 10:39:53;;;;;;;34.33;16.13;;;;;;;4.18;89.49;102572.88;20927200;28;20092;-73
2021/12/18 10:49:54;;;;;;;34.13;15.35;;;;;;;4.32;87.40;102565.72;20927412;28;20090;-72
2021/12/18 10:59:58;;;;;;;32.33;14.55;;;;;;;4.41;89.31;102552.25;20925009;28;20052;-73
2021/12/18 11:10:29;;;;;;;33.00;15.23;;;;;;;4.58;88.50;102538.31;20929109;28;20507;-74
2021/12/18 11:20:31;;;;;;;31.48;15.30;;;;;;;4.47;88.25;102524.00;20925329;28;20434;-77
2021/12/18 11:30:32;;;;;;;32.53;13.90;;;;;;;4.37;88.36;102518.44;20923346;28;20485;-72
2021/12/18 11:40:37;;;;;;;29.77;13.50;;;;;;;4.23;88.33;102513.47;20925200;28;21833;-73
2021/12/18 11:50:38;;;;;;;27.23;12.27;;;;;;;4.16;89.83;102501.03;20924614;28;20060;-73
2021/12/18 12:00:49;;;;;;;30.92;13.15;;;;;;;4.19;88.51;102501.19;20928644;28;20057;-76
2021/12/18 12:11:15;;;;;;;27.73;12.00;;;;;;;4.17;88.67;102482.97;20929373;28;20091;-73
2021/12/18 12:21:56;;;;;;;29.67;12.85;;;;;;;4.35;86.94;102475.06;20927193;28;20053;-72
2021/12/18 12:32:02;;;;;;;30.05;14.30;;;;;;;4.30;87.39;102469.69;20762162;28;20082;-73
2021/12/18 12:42:10;;;;;;;28.13;13.50;;;;;;;4.23;88.05;102464.19;20935324;28;20975;-73
2021/12/18 12:52:16;;;;;;;26.88;12.82;;;;;;;4.36;88.09;102458.72;20939739;28;20041;-72
2021/12/18 13:02:18;;;;;;;25.38;12.13;;;;;;;4.39;87.31;102448.44;20933121;28;20045;-73
2021/12/18 13:12:20;;;;;;;21.80;11.30;;;;;;;4.23;88.02;102446.94;20932840;28;20143;-71
2021/12/18 13:22:27;;;;;;;24.55;12.05;;;;;;;4.31;89.13;102429.06;20933929;28;20115;-71
2021/12/18 13:32:28;;;;;;;21.67;10.88;;;;;;;4.24;88.67;102422.75;20932266;28;20045;-72
2021/12/18 13:42:30;;;;;;;21.40;9.98;;;;;;;4.17;88.61;102420.75;20932937;28;20068;-74
2021/12/18 13:52:39;;;;;;;22.75;10.65;;;;;;;4.06;90.41;102416.78;20930667;28;20110;-71
2021/12/18 14:02:40;;;;;;;20.85;10.27;;;;;;;4.20;89.95;102407.00;20931150;28;20471;-72
2021/12/18 14:12:42;;;;;;;22.67;11.00;;;;;;;4.31;89.65;102398.88;20930953;28;20103;-72
2021/12/18 14:22:43;;;;;;;24.17;11.43;;;;;;;4.33;89.76;102399.81;20931093;28;20041;-68
2021/12/18 14:32:45;;;;;;;28.27;12.55;;;;;;;4.04;90.53;102413.25;20928113;28;20044;-73
2021/12/18 14:43:00;;;;;;;27.98;12.07;;;;;;;4.10;91.31;102397.97;20930635;28;20132;-73
2021/12/18 14:53:08;;;;;;;28.37;13.07;;;;;;;3.95;91.98;102394.72;20921665;28;20041;-72
2021/12/18 15:03:25;;;;;;;26.60;13.25;;;;;;;4.15;90.85;102400.75;20927040;28;20546;-72
2021/12/18 15:13:28;;;;;;;29.70;14.40;;;;;;;3.98;91.46;102395.75;20922916;28;20511;-71
2021/12/18 15:23:30;;;;;;;31.38;15.00;;;;;;;4.01;92.40;102403.63;20924683;28;20497;-72
2021/12/18 15:33:32;;;;;;;32.45;15.10;;;;;;;4.02;92.96;102396.72;20926752;28;20053;-72
2021/12/18 15:43:34;;;;;;;29.95;13.82;;;;;;;3.94;92.48;102395.53;20923514;28;20559;-72
2021/12/18 15:53:36;;;;;;;31.05;14.65;;;;;;;3.86;93.43;102388.31;20925852;28;20437;-72
2021/12/18 16:03:38;;;;;;;35.47;15.82;;;;;;;3.83;92.75;102388.19;20923511;28;20053;-72
2021/12/18 16:13:40;;;;;;;240.82;96.65;;;;;;;3.80;93.68;102380.28;20936012;28;20048;-73
2021/12/18 16:23:42;;;;;;;35.42;17.27;;;;;;;3.71;93.87;102377.28;20946443;28;20076;-72
2021/12/18 16:33:43;;;;;;;33.13;16.98;;;;;;;3.77;94.36;102376.66;20936801;28;20470;-72
2021/12/18 16:43:47;;;;;;;31.85;14.20;;;;;;;3.80;95.18;102362.13;20932692;28;20135;-74
2021/12/18 16:53:53;;;;;;;32.70;14.15;;;;;;;3.86;94.74;102361.50;20932669;28;20072;-72
2021/12/18 17:03:58;;;;;;;35.53;17.70;;;;;;;3.90;94.91;102362.53;20936181;28;20098;-71
2021/12/18 17:14:00;;;;;;;39.17;17.42;;;;;;;4.04;95.01;102366.59;20939351;28;20045;-71
2021/12/18 17:24:03;;;;;;;34.33;16.08;;;;;;;4.03;94.09;102357.94;20930940;28;20044;-71
2021/12/18 17:34:05;;;;;;;39.28;17.95;;;;;;;3.91;95.03;102354.81;20938465;28;20049;-71
2021/12/18 17:44:07;;;;;;;37.03;16.88;;;;;;;3.82;95.55;102368.25;20932804;28;20064;-71
2021/12/18 17:54:09;;;;;;;36.55;15.65;;;;;;;3.78;95.23;102366.34;20935904;28;20037;-71
2021/12/18 18:04:10;;;;;;;37.38;17.48;;;;;;;3.88;95.02;102369.34;20928872;28;20481;-73
2021/12/18 18:14:12;;;;;;;37.40;17.25;;;;;;;4.02;94.50;102369.09;20935060;28;20485;-72
2021/12/18 18:24:14;;;;;;;42.00;19.30;;;;;;;3.96;95.13;102374.03;20929184;28;20525;-71
2021/12/18 18:34:15;;;;;;;39.63;18.75;;;;;;;3.98;95.20;102366.34;20975920;23;20098;-69
2021/12/18 18:44:17;;;;;;;36.08;16.80;;;;;;;3.97;94.89;102367.13;20972043;28;20485;-69
2021/12/18 18:54:19;;;;;;;39.40;19.30;;;;;;;3.91;95.74;102372.06;20966974;28;20045;-69
2021/12/18 19:04:20;;;;;;;42.53;19.15;;;;;;;4.00;95.35;102369.88;20968692;28;20479;-69
2021/12/18 19:14:22;;;;;;;37.63;18.23;;;;;;;3.93;95.90;102362.63;20970673;28;20559;-70
2021/12/18 19:24:23;;;;;;;35.80;17.65;;;;;;;3.92;95.82;102366.06;20965120;28;20040;-70
2021/12/18 19:34:25;;;;;;;38.63;18.90;;;;;;;3.87;96.14;102352.91;20965081;28;20102;-70
2021/12/18 19:44:28;;;;;;;41.00;20.70;;;;;;;3.85;95.70;102339.91;20972051;28;20055;-70
2021/12/18 19:54:29;;;;;;;40.65;18.55;;;;;;;3.71;96.77;102353.97;20981544;28;20056;-71
2021/12/18 20:04:31;;;;;;;36.35;17.77;;;;;;;3.82;96.74;102354.41;20989418;28;20041;-70
2021/12/18 20:14:35;;;;;;;59.35;26.40;;;;;;;3.83;96.58;102341.53;20993722;28;20049;-70
2021/12/18 20:24:36;;;;;;;39.08;17.33;;;;;;;3.91;95.48;102340.97;20978038;28;20094;-70
2021/12/18 20:34:38;;;;;;;41.47;18.13;;;;;;;3.73;97.06;102354.91;20981206;28;20045;-70
2021/12/18 20:44:41;;;;;;;40.92;18.15;;;;;;;3.84;97.07;102353.69;20982174;28;20098;-69
2021/12/18 20:54:42;;;;;;;34.55;16.55;;;;;;;3.78;97.42;102337.84;20982764;28;20106;-70
2021/12/18 21:04:44;;;;;;;40.28;17.80;;;;;;;3.78;97.79;102339.56;20968762;28;20082;-70
2021/12/18 21:14:45;;;;;;;38.88;18.10;;;;;;;3.77;97.54;102346.44;20970865;28;20052;-69
2021/12/18 21:24:47;;;;;;;49.30;20.75;;;;;;;3.79;98.78;102339.63;20964606;28;20051;-69
2021/12/18 21:44:50;;;;;;;55.05;23.65;;;;;;;3.57;100.00;102345.56;20966401;28;20470;-69
2021/12/18 21:54:52;;;;;;;92.55;35.40;;;;;;;3.69;100.00;102347.84;20971251;28;20102;-68
2021/12/18 22:04:53;;;;;;;74.25;28.25;;;;;;;3.66;100.00;102347.69;20966838;28;20044;-69
2021/12/18 22:14:55;;;;;;;68.40;28.75;;;;;;;3.71;100.00;102353.06;20971533;28;20044;-69
2021/12/18 22:24:56;;;;;;;69.43;26.75;;;;;;;3.65;100.00;102345.94;20970034;28;20044;-69
2021/12/18 22:34:58;;;;;;;65.75;24.98;;;;;;;3.57;100.00;102342.09;20967693;28;20048;-69
2021/12/18 22:45:00;;;;;;;62.63;25.70;;;;;;;3.54;100.00;102336.78;20970377;28;20048;-69
2021/12/18 22:55:04;;;;;;;63.85;25.85;;;;;;;3.63;100.00;102310.41;20966032;28;20074;-70
2021/12/18 23:05:07;;;;;;;69.27;25.43;;;;;;;3.70;100.00;102323.69;20970885;28;20041;-70
2021/12/18 23:15:28;;;;;;;64.90;25.27;;;;;;;3.65;100.00;102335.56;20958853;28;20470;-70
2021/12/18 23:25:29;;;;;;;72.22;26.70;;;;;;;3.56;100.00;102335.16;20961992;28;20097;-70
2021/12/18 23:35:30;;;;;;;67.22;25.40;;;;;;;3.40;100.00;102330.09;20969628;28;20097;-70
2021/12/18 23:55:52;;;;;;;61.60;23.52;;;;;;;3.36;100.00;102299.75;20968644;28;20044;-70
